createdAt,value
2019-06-10T00:02:17.390Z,101272.41
2019-06-10T00:04:50.839Z,101263.00
2019-06-10T00:07:21.101Z,101272.09
2019-06-10T00:09:51.146Z,101274.66
2019-06-10T00:12:22.062Z,101274.15
2019-06-10T00:14:51.835Z,101274.15
2019-06-10T00:17:21.504Z,101272.48
2019-06-10T00:19:51.271Z,101272.91
2019-06-10T00:22:21.556Z,101273.42
2019-06-10T00:24:52.177Z,101274.33
2019-06-10T00:27:45.521Z,101267.61
2019-06-10T00:30:06.504Z,101270.30
2019-06-10T00:32:36.066Z,101268.63
2019-06-10T00:35:06.510Z,101270.81
2019-06-10T00:37:37.242Z,101272.98
2019-06-10T00:40:08.955Z,101276.19
2019-06-10T00:42:42.953Z,101281.69
2019-06-10T00:45:17.958Z,101285.33
2019-06-10T00:47:47.171Z,101283.98
2019-06-10T00:50:16.694Z,101285.52
2019-06-10T00:52:46.104Z,101299.28
2019-06-10T00:55:15.646Z,101293.08
2019-06-10T00:57:45.486Z,101295.44
2019-06-10T01:00:25.174Z,101286.42
2019-06-10T01:02:46.593Z,101291.80
2019-06-10T01:05:16.022Z,101295.52
2019-06-10T01:07:45.530Z,101292.19
2019-06-10T01:10:15.722Z,101289.38
2019-06-10T01:12:45.142Z,101288.45
2019-06-10T01:15:15.502Z,101294.53
2019-06-10T01:17:45.060Z,101302.79
2019-06-10T01:20:16.050Z,101300.49
2019-06-10T01:22:45.787Z,101303.25
2019-06-10T01:25:15.237Z,101304.69
2019-06-10T01:27:44.640Z,101301.71
2019-06-10T01:30:20.584Z,101304.69
2019-06-10T01:32:45.750Z,101300.20
2019-06-10T01:35:15.822Z,101301.94
2019-06-10T01:37:46.562Z,101296.62
2019-06-10T01:40:17.868Z,101300.02
2019-06-10T01:42:47.485Z,101301.58
2019-06-10T01:45:17.324Z,101298.25
2019-06-10T01:47:51.105Z,101303.12
2019-06-10T01:50:21.899Z,101299.92
2019-06-10T01:52:51.692Z,101310.02
2019-06-10T01:55:21.870Z,101311.36
2019-06-10T01:57:51.925Z,101304.52
2019-06-10T02:00:26.164Z,101306.38
2019-06-10T02:02:58.315Z,101304.39
2019-06-10T02:05:27.744Z,101300.55
2019-06-10T02:07:57.347Z,101297.03
2019-06-10T02:10:26.784Z,101295.88
2019-06-10T02:12:56.304Z,101299.11
2019-06-10T02:15:26.105Z,101291.11
2019-06-10T02:17:55.651Z,101299.62
2019-06-10T02:20:25.381Z,101297.36
2019-06-10T02:22:55.244Z,101298.83
2019-06-10T02:25:24.871Z,101296.78
2019-06-10T02:27:54.294Z,101288.34
2019-06-10T02:30:44.270Z,101287.55
2019-06-10T02:33:02.499Z,101287.16
2019-06-10T02:35:44.162Z,101291.13
2019-06-10T02:38:03.801Z,101290.20
2019-06-10T02:40:36.625Z,101285.78
2019-06-10T02:43:04.679Z,101293.59
2019-06-10T02:45:37.615Z,101288.78
2019-06-10T02:48:06.648Z,101289.03
2019-06-10T02:51:03.851Z,101297.95
2019-06-10T02:53:35.855Z,101287.50
2019-06-10T02:56:04.815Z,101293.92
2019-06-10T02:58:38.759Z,101293.70
2019-06-10T03:03:54.275Z,101284.28
2019-06-10T03:06:29.759Z,101280.17
2019-06-10T03:08:55.168Z,101278.68
2019-06-10T03:11:28.078Z,101268.67
2019-06-10T03:13:58.164Z,101267.59
2019-06-10T03:16:52.740Z,101271.42
2019-06-10T03:19:42.134Z,101271.17
2019-06-10T03:21:55.987Z,101280.12
2019-06-10T03:24:25.678Z,101284.23
2019-06-10T03:26:58.537Z,101281.88
2019-06-10T03:29:36.123Z,101287.30
2019-06-10T03:32:07.511Z,101275.00
2019-06-10T03:34:46.017Z,101272.98
2019-06-10T03:37:16.333Z,101272.86
2019-06-10T03:39:45.209Z,101273.94
2019-06-10T03:42:15.014Z,101278.95
2019-06-10T03:44:44.783Z,101283.17
2019-06-10T03:47:16.846Z,101289.00
2019-06-10T03:49:52.535Z,101290.83
2019-06-10T03:52:19.354Z,101297.52
2019-06-10T03:54:49.102Z,101289.67
2019-06-10T03:57:19.232Z,101290.13
2019-06-10T03:59:49.066Z,101299.13
2019-06-10T04:02:19.400Z,101295.25
2019-06-10T04:05:03.958Z,101293.58
2019-06-10T04:07:38.648Z,101290.97
2019-06-10T04:10:09.149Z,101296.09
2019-06-10T04:12:46.746Z,101289.54
2019-06-10T04:15:19.682Z,101285.42
2019-06-10T04:18:15.297Z,101277.89
2019-06-10T04:20:45.211Z,101290.66
2019-06-10T04:23:15.093Z,101291.89
2019-06-10T04:25:45.433Z,101297.73
2019-06-10T04:28:17.747Z,101300.45
2019-06-10T04:30:49.770Z,101306.53
2019-06-10T04:33:20.884Z,101295.77
2019-06-10T04:35:51.991Z,101297.56
2019-06-10T04:38:23.350Z,101299.48
2019-06-10T04:40:54.204Z,101298.27
2019-06-10T04:43:25.993Z,101299.42
2019-06-10T04:45:55.394Z,101302.25
2019-06-10T04:48:26.206Z,101307.78
2019-06-10T04:50:57.382Z,101307.72
2019-06-10T04:53:28.014Z,101300.12
2019-06-10T04:55:58.335Z,101301.05
2019-06-10T04:58:29.149Z,101293.73
2019-06-10T05:00:59.268Z,101284.73
2019-06-10T05:03:32.973Z,101287.29
2019-06-10T05:06:03.246Z,101284.09
2019-06-10T05:08:33.940Z,101284.18
2019-06-10T05:11:04.642Z,101277.73
2019-06-10T05:13:34.182Z,101280.71
2019-06-10T05:16:03.963Z,101276.27
2019-06-10T05:18:33.590Z,101273.21
2019-06-10T05:21:03.247Z,101269.67
2019-06-10T05:23:33.237Z,101271.11
2019-06-10T05:26:03.141Z,101279.50
2019-06-10T05:28:34.154Z,101272.52
2019-06-10T05:31:03.978Z,101271.77
2019-06-10T05:33:33.709Z,101282.52
2019-06-10T05:36:03.294Z,101281.24
2019-06-10T05:38:35.104Z,101286.27
2019-06-10T05:41:04.005Z,101286.05
2019-06-10T05:43:34.666Z,101295.28
2019-06-10T05:46:07.287Z,101288.22
2019-06-10T05:48:36.714Z,101297.39
2019-06-10T05:51:07.101Z,101296.56
2019-06-10T05:53:36.677Z,101288.83
2019-06-10T05:56:07.822Z,101299.95
2019-06-10T05:58:39.898Z,101299.95
2019-06-10T06:01:09.436Z,101299.42
2019-06-10T06:03:39.004Z,101305.69
2019-06-10T06:06:14.890Z,101306.45
2019-06-10T06:08:44.326Z,101301.72
2019-06-10T06:11:15.629Z,101300.56
2019-06-10T06:13:45.034Z,101299.37
2019-06-10T06:16:14.486Z,101292.58
2019-06-10T06:18:44.004Z,101292.05
2019-06-10T06:21:25.310Z,101292.83
2019-06-10T06:23:44.660Z,101293.36
2019-06-10T06:26:16.957Z,101296.81
2019-06-10T06:28:46.385Z,101299.64
2019-06-10T06:31:15.838Z,101301.16
2019-06-10T06:33:45.279Z,101293.22
2019-06-10T06:36:14.777Z,101286.67
2019-06-10T06:38:44.221Z,101294.39
2019-06-10T06:41:15.133Z,101287.13
2019-06-10T06:43:45.363Z,101294.52
2019-06-10T06:46:17.133Z,101286.89
2019-06-10T06:48:48.445Z,101276.70
2019-06-10T06:51:35.466Z,101278.05
2019-06-10T06:53:52.978Z,101277.86
2019-06-10T06:56:23.099Z,101278.66
2019-06-10T06:58:52.894Z,101285.75
2019-06-10T07:01:25.959Z,101300.77
2019-06-10T07:03:57.471Z,101295.86
2019-06-10T07:06:27.455Z,101297.09
2019-06-10T07:09:04.485Z,101293.92
2019-06-10T07:11:33.974Z,101281.00
2019-06-10T07:14:04.896Z,101282.83
2019-06-10T07:16:36.142Z,101283.78
2019-06-10T07:19:05.836Z,101292.38
2019-06-10T07:21:56.934Z,101286.12
2019-06-10T07:24:07.181Z,101283.73
2019-06-10T07:26:42.110Z,101276.50
2019-06-10T07:29:07.946Z,101273.38
2019-06-10T07:31:39.694Z,101277.45
2019-06-10T07:34:12.854Z,101275.12
2019-06-10T07:36:44.023Z,101274.59
2019-06-10T07:39:14.989Z,101269.86
2019-06-10T07:41:47.943Z,101280.08
2019-06-10T07:44:17.109Z,101280.06
2019-06-10T07:46:47.031Z,101279.09
2019-06-10T07:49:16.625Z,101274.15
2019-06-10T07:51:46.971Z,101275.09
2019-06-10T07:54:16.488Z,101271.16
2019-06-10T07:56:50.434Z,101272.16
2019-06-10T07:59:17.190Z,101274.26
2019-06-10T08:01:51.496Z,101274.39
2019-06-10T08:04:17.903Z,101280.38
2019-06-10T08:06:49.890Z,101278.41
2019-06-10T08:09:22.764Z,101281.30
2019-06-10T08:11:53.350Z,101274.63
2019-06-10T08:14:23.018Z,101281.97
2019-06-10T08:16:53.292Z,101271.21
2019-06-10T08:19:34.411Z,101279.14
2019-06-10T08:21:54.826Z,101269.19
2019-06-10T08:24:24.807Z,101264.72
2019-06-10T08:26:54.539Z,101252.97
2019-06-10T08:29:24.181Z,101267.16
2019-06-10T08:31:54.085Z,101259.85
2019-06-10T08:34:23.913Z,101266.52
2019-06-10T08:36:54.289Z,101266.36
2019-06-10T08:39:24.298Z,101271.02
2019-06-10T08:41:53.960Z,101262.86
2019-06-10T08:44:23.371Z,101257.66
2019-06-10T08:46:53.130Z,101271.59
2019-06-10T08:49:23.879Z,101272.23
2019-06-10T08:51:54.111Z,101263.92
2019-06-10T08:54:24.355Z,101256.84
2019-06-10T08:57:04.918Z,101256.75
2019-06-10T08:59:34.374Z,101263.06
2019-06-10T09:02:03.918Z,101266.50
2019-06-10T09:04:33.432Z,101263.48
2019-06-10T09:07:04.310Z,101263.59
2019-06-10T09:09:35.024Z,101267.09
2019-06-10T09:12:04.723Z,101267.86
2019-06-10T09:14:34.255Z,101264.28
2019-06-10T09:17:03.691Z,101252.43
2019-06-10T09:19:33.354Z,101254.35
2019-06-10T09:22:03.896Z,101247.52
2019-06-10T09:24:33.582Z,101247.47
2019-06-10T09:27:03.131Z,101252.47
2019-06-10T09:29:34.465Z,101254.13
2019-06-10T09:32:03.920Z,101251.74
2019-06-10T09:34:33.527Z,101258.55
2019-06-10T09:37:04.066Z,101256.64
2019-06-10T09:39:36.202Z,101246.07
2019-06-10T09:42:06.749Z,101236.44
2019-06-10T09:44:37.141Z,101245.13
2019-06-10T09:47:06.862Z,101236.25
2019-06-10T09:49:38.286Z,101240.41
2019-06-10T09:52:08.075Z,101243.77
2019-06-10T09:54:38.652Z,101238.84
2019-06-10T09:57:08.369Z,101236.33
2019-06-10T09:59:37.842Z,101223.47
2019-06-10T10:02:08.486Z,101217.33
2019-06-10T10:04:44.219Z,101217.13
2019-06-10T10:07:13.918Z,101214.77
2019-06-10T10:09:47.026Z,101220.99
2019-06-10T10:12:15.448Z,101222.19
2019-06-10T10:14:48.124Z,101227.34
2019-06-10T10:17:16.423Z,101218.14
2019-06-10T10:19:48.658Z,101216.53
2019-06-10T10:22:17.550Z,101216.08
2019-06-10T10:24:47.550Z,101213.00
2019-06-10T10:27:17.195Z,101223.20
2019-06-10T10:29:48.852Z,101213.45
2019-06-10T10:32:18.155Z,101208.00
2019-06-10T10:34:48.711Z,101200.11
2019-06-10T10:37:19.642Z,101209.43
2019-06-10T10:39:49.143Z,101210.37
2019-06-10T10:42:18.733Z,101216.44
2019-06-10T10:44:51.010Z,101218.45
2019-06-10T10:47:37.987Z,101218.25
2019-06-10T10:50:08.018Z,101219.93
2019-06-10T10:52:38.898Z,101221.71
2019-06-10T10:55:13.079Z,101211.08
2019-06-10T10:57:41.362Z,101207.45
2019-06-10T11:00:15.026Z,101209.20
2019-06-10T11:02:46.690Z,101201.21
2019-06-10T11:05:33.338Z,101206.44
2019-06-10T11:08:04.323Z,101213.54
2019-06-10T11:10:34.122Z,101211.01
2019-06-10T11:13:07.132Z,101206.55
2019-06-10T11:15:36.890Z,101209.33
2019-06-10T11:18:09.049Z,101213.52
2019-06-10T11:20:38.503Z,101213.83
2019-06-10T11:23:08.016Z,101217.95
2019-06-10T11:25:37.617Z,101218.43
2019-06-10T11:28:07.477Z,101210.80
2019-06-10T11:30:37.070Z,101217.67
2019-06-10T11:33:06.693Z,101220.78
2019-06-10T11:35:36.312Z,101220.33
2019-06-10T11:38:05.862Z,101216.58
2019-06-10T11:40:35.291Z,101206.84
2019-06-10T11:43:04.917Z,101203.36
2019-06-10T11:45:34.383Z,101202.56
2019-06-10T11:48:04.197Z,101199.94
2019-06-10T11:50:34.091Z,101200.83
2019-06-10T11:53:06.121Z,101199.55
2019-06-10T11:55:39.132Z,101197.91
2019-06-10T11:58:09.049Z,101202.77
2019-06-10T12:00:39.216Z,101199.01
2019-06-10T12:03:09.264Z,101199.31
2019-06-10T12:05:41.740Z,101198.50
2019-06-10T12:08:13.162Z,101200.96
2019-06-10T12:10:43.439Z,101195.77
2019-06-10T12:13:22.465Z,101188.61
2019-06-10T12:16:49.427Z,101182.33
2019-06-10T12:18:23.122Z,101179.67
2019-06-10T12:20:58.970Z,101186.55
2019-06-10T12:23:24.333Z,101178.67
2019-06-10T12:25:59.276Z,101184.38
2019-06-10T12:28:28.519Z,101181.09
2019-06-10T12:31:01.551Z,101177.91
2019-06-10T12:33:29.960Z,101174.96
2019-06-10T12:36:06.543Z,101171.16
2019-06-10T12:38:33.880Z,101176.63
2019-06-10T12:41:08.968Z,101166.81
2019-06-10T12:43:35.074Z,101162.98
2019-06-10T12:46:04.733Z,101156.42
2019-06-10T12:48:34.581Z,101157.51
2019-06-10T12:51:19.512Z,101151.52
2019-06-10T12:53:49.311Z,101146.58
2019-06-10T12:56:22.793Z,101136.49
2019-06-10T12:58:58.071Z,101137.53
2019-06-10T13:01:33.611Z,101137.55
2019-06-10T13:04:08.041Z,101143.23
2019-06-10T13:07:00.364Z,101136.64
2019-06-10T13:09:46.916Z,101126.25
2019-06-10T13:12:18.296Z,101134.42
2019-06-10T13:14:57.817Z,101128.42
2019-06-10T13:17:34.028Z,101120.52
2019-06-10T13:20:08.295Z,101131.20
2019-06-10T13:23:35.290Z,101128.24
2019-06-10T13:25:54.548Z,101123.88
2019-06-10T13:28:35.572Z,101126.05
2019-06-10T13:31:11.828Z,101120.84
2019-06-10T13:33:42.874Z,101117.84
2019-06-10T13:36:17.394Z,101114.58
2019-06-10T13:38:53.234Z,101110.52
2019-06-10T13:41:24.775Z,101108.92
2019-06-10T13:44:26.326Z,101109.17
2019-06-10T13:46:55.593Z,101107.81
2019-06-10T13:49:25.567Z,101102.07
2019-06-10T13:51:56.528Z,101099.37
2019-06-10T13:54:28.097Z,101084.90
2019-06-10T13:56:59.100Z,101086.52
2019-06-10T13:59:30.360Z,101087.62
2019-06-10T14:02:10.245Z,101096.09
2019-06-10T14:04:42.450Z,101094.41
2019-06-10T14:07:18.902Z,101096.61
2019-06-10T14:09:50.038Z,101091.43
2019-06-10T14:12:23.662Z,101090.89
2019-06-10T14:14:53.384Z,101088.70
2019-06-10T14:17:46.361Z,101090.36
2019-06-10T14:20:26.740Z,101093.92
2019-06-10T14:22:59.535Z,101087.14
2019-06-10T14:25:34.684Z,101090.70
2019-06-10T14:28:19.687Z,101093.16
2019-06-10T14:30:53.406Z,101086.06
2019-06-10T14:33:23.231Z,101086.34
2019-06-10T14:35:53.698Z,101081.70
2019-06-10T14:38:27.947Z,101073.78
2019-06-10T14:41:04.872Z,101078.43
2019-06-10T14:43:34.168Z,101072.95
2019-06-10T14:46:07.252Z,101066.38
2019-06-10T14:48:37.972Z,101068.02
2019-06-10T14:51:09.394Z,101054.08
2019-06-10T14:53:42.861Z,101061.20
2019-06-10T14:56:18.949Z,101063.13
2019-06-10T14:58:47.132Z,101059.02
2019-06-10T15:01:26.142Z,101058.72
2019-06-10T15:03:58.066Z,101059.82
2019-06-10T15:06:27.790Z,101061.45
2019-06-10T15:09:02.033Z,101057.63
2019-06-10T15:11:32.608Z,101065.86
2019-06-10T15:14:03.593Z,101063.39
2019-06-10T15:16:35.901Z,101065.85
2019-06-10T15:19:15.847Z,101061.73
2019-06-10T15:21:39.999Z,101069.92
2019-06-10T15:24:09.947Z,101069.08
2019-06-10T15:26:42.351Z,101076.08
2019-06-10T15:29:17.086Z,101073.09
2019-06-10T15:32:09.151Z,101069.35
2019-06-10T15:34:26.419Z,101058.10
2019-06-10T15:36:55.961Z,101054.15
2019-06-10T15:39:25.412Z,101060.00
2019-06-10T15:41:58.110Z,101065.23
2019-06-10T15:44:47.622Z,101064.73
2019-06-10T15:47:04.750Z,101058.57
2019-06-10T15:49:34.147Z,101051.88
2019-06-10T15:52:06.248Z,101045.01
2019-06-10T15:54:42.510Z,101048.02
2019-06-10T15:57:39.489Z,101052.05
2019-06-10T16:00:02.902Z,101052.20
2019-06-10T16:02:33.466Z,101055.62
2019-06-10T16:05:06.060Z,101054.73
2019-06-10T16:07:38.759Z,101054.16
2019-06-10T16:10:12.817Z,101059.08
2019-06-10T16:12:43.769Z,101064.83
2019-06-10T16:15:16.141Z,101057.79
2019-06-10T16:17:47.787Z,101060.52
2019-06-10T16:20:17.830Z,101054.56
2019-06-10T16:22:47.806Z,101050.84
2019-06-10T16:25:17.763Z,101039.42
2019-06-10T16:27:51.118Z,101038.52
2019-06-10T16:30:18.631Z,101037.06
2019-06-10T16:32:48.067Z,101049.70
2019-06-10T16:35:20.812Z,101035.29
2019-06-10T16:38:38.584Z,101039.07
2019-06-10T16:41:32.261Z,101027.95
2019-06-10T16:44:13.619Z,101034.67
2019-06-10T16:46:46.833Z,101019.01
2019-06-10T16:49:53.765Z,101021.16
2019-06-10T16:52:26.105Z,101018.27
2019-06-10T16:54:57.861Z,101017.19
2019-06-10T16:57:27.786Z,101031.66
2019-06-10T17:00:07.025Z,101028.51
2019-06-10T17:02:33.170Z,101025.82
2019-06-10T17:05:06.729Z,101030.34
2019-06-10T17:07:36.556Z,101031.85
2019-06-10T17:10:09.482Z,101022.43
2019-06-10T17:12:38.975Z,101029.41
2019-06-10T17:15:13.049Z,101033.78
2019-06-10T17:17:42.455Z,101042.40
2019-06-10T17:20:13.097Z,101039.69
2019-06-10T17:22:43.440Z,101033.78
2019-06-10T17:25:15.659Z,101042.44
2019-06-10T17:27:45.285Z,101032.70
2019-06-10T17:30:15.152Z,101038.70
2019-06-10T17:32:44.596Z,101046.14
2019-06-10T17:35:14.368Z,101055.67
2019-06-10T17:37:43.820Z,101055.67
2019-06-10T17:40:14.014Z,101049.05
2019-06-10T17:42:43.417Z,101046.14
2019-06-10T17:45:14.745Z,101047.41
2019-06-10T17:47:44.534Z,101049.17
2019-06-10T17:50:16.430Z,101044.69
2019-06-10T17:52:45.820Z,101050.80
2019-06-10T17:55:15.513Z,101048.34
2019-06-10T17:57:47.481Z,101042.05
2019-06-10T18:00:16.793Z,101053.94
2019-06-10T18:02:46.859Z,101051.31
2019-06-10T18:05:16.287Z,101048.28
2019-06-10T18:07:47.063Z,101056.07
2019-06-10T18:10:16.702Z,101060.94
2019-06-10T18:12:46.113Z,101053.20
2019-06-10T18:15:16.903Z,101051.09
2019-06-10T18:17:46.334Z,101054.33
2019-06-10T18:20:16.345Z,101054.67
2019-06-10T18:22:45.822Z,101051.38
2019-06-10T18:25:16.848Z,101047.89
2019-06-10T18:27:46.264Z,101050.59
2019-06-10T18:30:15.965Z,101048.79
2019-06-10T18:32:45.448Z,101044.44
2019-06-10T18:35:15.446Z,101050.35
2019-06-10T18:37:44.839Z,101050.35
2019-06-10T18:40:17.989Z,101053.25
2019-06-10T18:42:47.464Z,101058.88
2019-06-10T18:45:22.433Z,101057.31
2019-06-10T18:47:53.309Z,101061.71
2019-06-10T18:50:25.985Z,101064.48
2019-06-10T18:52:57.396Z,101068.84
2019-06-10T18:55:29.077Z,101063.05
2019-06-10T19:00:22.732Z,101071.17
2019-06-10T19:03:13.034Z,101062.08
2019-06-10T19:05:36.665Z,101063.36
2019-06-10T19:08:07.117Z,101065.73
2019-06-10T19:10:37.471Z,101066.48
2019-06-10T19:13:08.155Z,101062.89
2019-06-10T19:15:37.845Z,101067.73
2019-06-10T19:18:13.137Z,101064.69
2019-06-10T19:20:45.094Z,101070.59
2019-06-10T19:23:14.472Z,101069.47
2019-06-10T19:25:44.412Z,101073.21
2019-06-10T19:28:14.529Z,101074.81
2019-06-10T19:30:44.853Z,101073.94
2019-06-10T19:33:14.323Z,101074.67
2019-06-10T19:35:43.875Z,101081.44
2019-06-10T19:38:13.292Z,101081.63
2019-06-10T19:40:44.117Z,101079.11
2019-06-10T19:43:13.609Z,101084.45
2019-06-10T19:45:44.000Z,101084.33
2019-06-10T19:48:13.439Z,101087.23
2019-06-10T19:50:48.090Z,101094.15
2019-06-10T19:53:14.293Z,101093.75
2019-06-10T19:55:44.466Z,101093.88
2019-06-10T19:58:14.934Z,101095.08
2019-06-10T20:00:50.772Z,101096.52
2019-06-10T20:03:16.887Z,101099.34
2019-06-10T20:05:47.096Z,101094.68
2019-06-10T20:08:16.698Z,101106.19
2019-06-10T20:10:46.071Z,101110.88
2019-06-10T20:13:15.504Z,101107.67
2019-06-10T20:15:46.688Z,101107.21
2019-06-10T20:18:16.070Z,101111.13
2019-06-10T20:20:47.132Z,101118.38
2019-06-10T20:23:18.621Z,101119.30
2019-06-10T20:25:48.847Z,101114.33
2019-06-10T20:28:18.290Z,101116.31
2019-06-10T20:30:49.109Z,101104.27
2019-06-10T20:33:33.868Z,101111.47
2019-06-10T20:36:03.501Z,101109.45
2019-06-10T20:38:32.996Z,101112.53
2019-06-10T20:41:02.838Z,101111.73
2019-06-10T20:43:32.855Z,101118.62
2019-06-10T20:46:05.605Z,101113.02
2019-06-10T20:48:33.615Z,101109.27
2019-06-10T20:51:03.387Z,101109.65
2019-06-10T20:53:33.826Z,101107.34
2019-06-10T20:56:04.149Z,101106.12
2019-06-10T20:58:33.510Z,101109.74
2019-06-10T21:01:04.873Z,101107.23
2019-06-10T21:03:34.489Z,101113.05
2019-06-10T21:06:04.992Z,101114.81
2019-06-10T21:08:35.038Z,101118.48
2019-06-10T21:11:04.456Z,101130.77
2019-06-10T21:13:33.842Z,101128.58
2019-06-10T21:16:03.966Z,101125.92
2019-06-10T21:18:33.753Z,101127.08
2019-06-10T21:21:03.194Z,101126.06
2019-06-10T21:23:32.583Z,101118.36
2019-06-10T21:26:02.906Z,101114.92
2019-06-10T21:28:32.879Z,101123.49
2019-06-10T21:31:02.960Z,101129.92
2019-06-10T21:33:33.455Z,101133.00
2019-06-10T21:36:03.955Z,101124.94
2019-06-10T21:38:33.585Z,101129.41
2019-06-10T21:41:03.478Z,101120.53
2019-06-10T21:43:33.322Z,101130.71
2019-06-10T21:46:03.693Z,101121.09
2019-06-10T21:48:33.494Z,101119.89
2019-06-10T21:51:02.903Z,101118.94
2019-06-10T21:53:32.272Z,101116.61
2019-06-10T21:56:01.772Z,101111.08
2019-06-10T21:58:32.782Z,101111.36
2019-06-10T22:01:12.624Z,101115.44
2019-06-10T22:03:35.394Z,101105.47
2019-06-10T22:06:04.818Z,101109.36
2019-06-10T22:08:46.062Z,101109.59
2019-06-10T22:11:15.390Z,101107.47
2019-06-10T22:13:46.102Z,101100.88
2019-06-10T22:16:15.870Z,101103.69
2019-06-10T22:18:46.554Z,101097.90
2019-06-10T22:21:15.955Z,101099.69
2019-06-10T22:23:48.792Z,101095.64
2019-06-10T22:26:18.121Z,101093.59
2019-06-10T22:28:47.956Z,101092.10
2019-06-10T22:31:23.034Z,101098.16
2019-06-10T22:33:49.534Z,101098.55
2019-06-10T22:36:18.898Z,101095.97
2019-06-10T22:38:48.361Z,101092.88
2019-06-10T22:41:17.757Z,101089.21
2019-06-10T22:43:47.211Z,101087.38
2019-06-10T22:46:16.743Z,101101.74
2019-06-10T22:48:46.865Z,101097.15
2019-06-10T22:51:16.299Z,101102.40
2019-06-10T22:53:46.129Z,101097.25
2019-06-10T22:56:15.531Z,101097.09
2019-06-10T22:58:44.897Z,101096.09
2019-06-10T23:01:14.403Z,101098.59
2019-06-10T23:03:44.867Z,101094.70
2019-06-10T23:06:14.262Z,101098.63
2019-06-10T23:08:43.838Z,101092.22
2019-06-10T23:11:13.239Z,101100.73
2019-06-10T23:13:42.618Z,101107.31
2019-06-10T23:16:12.982Z,101108.69
2019-06-10T23:18:42.598Z,101115.89
2019-06-10T23:21:13.437Z,101122.38
2019-06-10T23:23:43.181Z,101126.42
2019-06-10T23:26:13.123Z,101121.15
2019-06-10T23:28:42.962Z,101126.89
2019-06-10T23:31:12.863Z,101126.27
2019-06-10T23:33:42.663Z,101126.58
2019-06-10T23:36:13.061Z,101124.23
2019-06-10T23:38:43.219Z,101124.03
2019-06-10T23:41:13.050Z,101125.28
2019-06-10T23:43:42.489Z,101129.32
2019-06-10T23:46:12.210Z,101132.77
2019-06-10T23:48:42.382Z,101132.25
2019-06-10T23:51:12.241Z,101134.73
2019-06-10T23:53:42.125Z,101132.80
2019-06-10T23:56:12.798Z,101132.28
2019-06-10T23:58:43.311Z,101142.64
